^^
Station Historical Data
 
Daily Summary for October 21, 2019 Units:  English    Metric   Both
« Previous Day
Next Day »
Daily Weekly Monthly Yearly Custom
  Current: High: Low: Average:
Temperature: 50 °F 57.8 °F 47.7 °F 52 °F
Dew Point: 42.8 °F 57.4 °F 39.8 °F 47.4 °F
Humidity: 76% 100% 66% 85%
Wind Speed: 6mph 8mph 0mph 1.7mph
Wind Gust: 13mph 23mph - -
WindSSW - - SE
Pressure: 29.14 in 29.75 in 29.07 in -
Precipitation: 1.49 in      
Historical Graphs
 
 
Tabular Data for October 21, 2019
Time Temperature Dew Point Pressure Wind Wind Speed Wind Gust Humidity Rainfall Rate (Hourly) solar Conditions
00:00 52.6 °F 45.2 °F 29.75 in ESE 1 mph 3 mph 76% 0 in 0.00 W/m2 CLR
00:05 52.6 °F 45.2 °F 29.75 in East 1 mph 8 mph 76% 0 in 0.00 W/m2 SCT
00:10 52.5 °F 45.2 °F 29.74 in East 2 mph 8 mph 76% 0 in 0.00 W/m2 SCT
00:15 52.5 °F 45.2 °F 29.74 in East 1 mph 4 mph 76% 0 in 0.00 W/m2 SCT
00:20 52.5 °F 45.2 °F 29.73 in East 1 mph 10 mph 76% 0 in 0.00 W/m2 SCT
00:25 52.7 °F 45.3 °F 29.73 in East 2 mph 8 mph 76% 0 in 0.00 W/m2 SCT
00:30 52.8 °F 45.4 °F 29.72 in East 1 mph 8 mph 76% 0 in 0.00 W/m2 SCT
00:35 52.9 °F 45.5 °F 29.72 in ESE 1 mph 9 mph 76% 0 in 0.00 W/m2 SCT
00:40 53 °F 45.6 °F 29.72 in SE 2 mph 9 mph 76% 0 in 0.00 W/m2 SCT
00:45 53.1 °F 45.7 °F 29.71 in ESE 2 mph 8 mph 76% 0 in 0.00 W/m2 SCT
00:50 53.2 °F 45.8 °F 29.71 in ESE 2 mph 7 mph 76% 0 in 0.00 W/m2 SCT
00:55 53.4 °F 46 °F 29.70 in ESE 5 mph 12 mph 76% 0 in 0.00 W/m2 SCT
01:00 53.6 °F 46.2 °F 29.70 in ESE 5 mph 9 mph 76% 0 in 0.00 W/m2 SCT
01:05 53.7 °F 44.5 °F 29.70 in ESE 3 mph 13 mph 71% 0 in 0.00 W/m2 BKN
01:10 53.9 °F 44.7 °F 29.69 in ESE 6 mph 13 mph 71% 0 in 0.00 W/m2 BKN
01:15 54 °F 44.8 °F 29.69 in East 5 mph 10 mph 71% 0 in 0.00 W/m2 BKN
01:20 54 °F 44.8 °F 29.68 in ESE 1 mph 9 mph 71% 0 in 0.00 W/m2 BKN
01:25 54 °F 44.8 °F 29.67 in ESE 2 mph 12 mph 71% 0 in 0.00 W/m2 BKN
01:30 54 °F 44.8 °F 29.66 in ESE 5 mph 10 mph 71% 0 in 0.00 W/m2 BKN
01:35 54 °F 44.8 °F 29.66 in ESE 3 mph 14 mph 71% 0 in 0.00 W/m2 BKN
01:40 54 °F 44.8 °F 29.66 in ESE 1 mph 14 mph 71% 0 in 0.00 W/m2 BKN
01:45 54 °F 44.8 °F 29.66 in ESE 3 mph 8 mph 71% 0 in 0.00 W/m2 BKN
01:50 53.9 °F 44.7 °F 29.66 in SE 3 mph 9 mph 71% 0 in 0.00 W/m2 BKN
01:55 53.8 °F 44.6 °F 29.66 in ESE 1 mph 8 mph 71% 0 in 0.00 W/m2 BKN
02:00 53.8 °F 44.6 °F 29.65 in ESE 1 mph 7 mph 71% 0 in 0.00 W/m2 BKN
02:05 53.7 °F 42.6 °F 29.65 in ESE 5 mph 9 mph 66% 0 in 0.00 W/m2 BKN
02:10 53.7 °F 42.6 °F 29.65 in SE 5 mph 9 mph 66% 0 in 0.00 W/m2 BKN
02:15 53.7 °F 42.6 °F 29.66 in Calm   9 mph 66% 0 in 0.00 W/m2 BKN
02:20 53.7 °F 42.7 °F 29.66 in SE 5 mph 14 mph 66% 0 in 0.00 W/m2 BKN
02:25 53.8 °F 42.7 °F 29.67 in ESE 3 mph 15 mph 66% 0 in 0.00 W/m2 BKN
02:30 53.9 °F 42.8 °F 29.67 in SE 3 mph 13 mph 66% 0 in 0.00 W/m2 BKN
02:35 53.9 °F 42.8 °F 29.66 in SE 2 mph 13 mph 66% 0 in 0.00 W/m2 BKN
02:40 53.8 °F 42.7 °F 29.66 in SE 3 mph 12 mph 66% 0 in 0.00 W/m2 BKN
02:45 53.7 °F 42.6 °F 29.66 in SE 1 mph 10 mph 66% 0 in 0.00 W/m2 BKN
02:50 53.7 °F 42.6 °F 29.65 in SE 1 mph 8 mph 66% 0 in 0.00 W/m2 BKN
02:55 53.7 °F 42.6 °F 29.65 in SE 1 mph 10 mph 66% 0 in 0.00 W/m2 BKN
03:00 53.7 °F 42.6 °F 29.64 in ESE 2 mph 15 mph 66% 0 in 0.00 W/m2 BKN
03:05 53.7 °F 42.6 °F 29.63 in ESE 2 mph 10 mph 66% 0 in 0.00 W/m2 OVC
03:10 53.8 °F 42.7 °F 29.63 in SE 2 mph 17 mph 66% 0 in 0.00 W/m2 -RA
03:15 53.9 °F 42.8 °F 29.62 in SE 1 mph 7 mph 66% 0 in 0.00 W/m2 OVC
03:20 53.9 °F 42.8 °F 29.61 in ESE 1 mph 12 mph 66% 0 in 0.00 W/m2 -RA
03:25 53.8 °F 42.7 °F 29.61 in ESE 1 mph 8 mph 66% 0 in 0.00 W/m2 OVC
03:30 53.7 °F 42.6 °F 29.61 in ESE 1 mph 9 mph 66% 0 in 0.00 W/m2 -RA
03:35 53.7 °F 42.6 °F 29.60 in ESE 1 mph 6 mph 66% 0 in 0.00 W/m2 OVC
03:40 53.6 °F 42.5 °F 29.59 in East 5 mph 12 mph 66% 0 in 0.00 W/m2 -RA
03:45 53.6 °F 42.5 °F 29.59 in ESE 3 mph 10 mph 66% 0 in 0.00 W/m2 OVC
03:50 53.6 °F 42.5 °F 29.59 in ESE 5 mph 9 mph 66% 0 in 0.00 W/m2 -RA
03:55 53.5 °F 42.4 °F 29.59 in SE 5 mph 9 mph 66% 0 in 0.00 W/m2 OVC
04:00 53.5 °F 42.4 °F 29.58 in East 5 mph 12 mph 66% 0 in 0.00 W/m2 OVC
04:05 53.4 °F 42.3 °F 29.57 in ESE 3 mph 9 mph 66% 0 in 0.00 W/m2 OVC
04:10 53.3 °F 42.2 °F 29.56 in ESE 1 mph 13 mph 66% 0 in 0.00 W/m2 OVC
04:15 53.3 °F 42.2 °F 29.56 in East 3 mph 12 mph 66% 0 in 0.00 W/m2 OVC
04:20 53.2 °F 42.1 °F 29.55 in ESE 1 mph 13 mph 66% 0 in 0.00 W/m2 OVC
04:25 53.2 °F 42.1 °F 29.55 in ESE 2 mph 17 mph 66% 0 in 0.00 W/m2 -DZ
04:30 53.1 °F 42 °F 29.55 in ESE 3 mph 14 mph 66% 0 in 0.00 W/m2 OVC
04:35 52.9 °F 41.8 °F 29.55 in ESE 2 mph 9 mph 66% 0 in 0.00 W/m2 OVC
04:40 52.5 °F 41.5 °F 29.54 in ESE 1 mph 8 mph 66% 0.01 in 0.00 W/m2 RA
04:45 52.1 °F 41.1 °F 29.55 in Calm   6 mph 66% 0 in 0.00 W/m2 -DZ
04:50 51.6 °F 40.6 °F 29.53 in Calm   9 mph 66% 0.01 in 0.00 W/m2 RA
04:55 51.2 °F 40.2 °F 29.53 in Calm   7 mph 66% 0 in 0.00 W/m2 -DZ
05:00 50.7 °F 39.8 °F 29.52 in Calm   7 mph 66% 0 in 0.00 W/m2 -DZ
05:05 50.3 °F 46.6 °F 29.51 in East 2 mph 7 mph 87% 0 in 0.00 W/m2 OVC
05:10 50 °F 46.3 °F 29.51 in Calm   4 mph 87% 0 in 0.00 W/m2 OVC
05:15 49.7 °F 46 °F 29.50 in Calm   4 mph 87% 0 in 0.00 W/m2 OVC
05:20 49.5 °F 45.8 °F 29.50 in East 1 mph 8 mph 87% 0 in 0.00 W/m2 OVC
05:25 49.4 °F 45.7 °F 29.50 in Calm   5 mph 87% 0 in 0.00 W/m2 OVC
05:30 49.2 °F 45.5 °F 29.50 in Calm   4 mph 87% 0 in 0.00 W/m2 OVC
05:35 49.1 °F 45.4 °F 29.49 in East 1 mph 8 mph 87% 0 in 0.00 W/m2 OVC
05:40 49.1 °F 45.4 °F 29.48 in Calm   5 mph 87% 0 in 0.00 W/m2 OVC
05:45 49.1 °F 45.4 °F 29.48 in Calm   4 mph 87% 0.01 in 0.00 W/m2 RA
05:50 49.1 °F 45.4 °F 29.48 in Calm   4 mph 87% 0.03 in 0.00 W/m2 RA
05:55 49 °F 45.3 °F 29.48 in Calm   3 mph 87% 0.04 in 0.00 W/m2 RA
06:00 48.8 °F 45.1 °F 29.47 in ESE 1 mph 3 mph 87% 0.09 in 0.00 W/m2 RA
06:05 48.6 °F 44.9 °F 29.47 in Calm   4 mph 87% 0.02 in 0.00 W/m2 RA
06:10 48.4 °F 44.7 °F 29.46 in Calm   4 mph 87% 0.03 in 0.00 W/m2 RA
06:15 48.2 °F 44.5 °F 29.46 in East 1 mph 5 mph 87% 0.01 in 0.00 W/m2 RA
06:20 48.1 °F 44.4 °F 29.45 in Calm   3 mph 87% 0.02 in 0.00 W/m2 RA
06:25 48 °F 44.3 °F 29.45 in Calm   4 mph 87% 0.01 in 0.00 W/m2 RA
06:30 47.9 °F 44.2 °F 29.45 in Calm   3 mph 87% 0.03 in 0.00 W/m2 RA
06:35 47.9 °F 44.2 °F 29.44 in Calm   3 mph 87% 0.01 in 0.00 W/m2 RA
06:40 47.8 °F 44.1 °F 29.43 in Calm   3 mph 87% 0.03 in 0.00 W/m2 RA
06:45 47.8 °F 44.1 °F 29.42 in Calm   4 mph 87% 0.01 in 0.00 W/m2 RA
06:50 47.7 °F 44 °F 29.41 in ENE 1 mph 5 mph 87% 0.03 in 0.00 W/m2 RA
06:55 47.7 °F 44 °F 29.40 in ENE 1 mph 9 mph 87% 0.01 in 0.00 W/m2 RA
07:00 47.7 °F 44 °F 29.40 in Calm   4 mph 87% 0.03 in 0.00 W/m2 RA
07:05 47.8 °F 47.8 °F 29.39 in Calm   6 mph 100% 0.02 in 0.00 W/m2 RA
07:10 47.8 °F 47.8 °F 29.39 in East 1 mph 4 mph 100% 0.03 in 0.00 W/m2 RA
07:15 47.8 °F 47.8 °F 29.38 in East 2 mph 7 mph 100% 0.01 in 0.00 W/m2 RA
07:20 47.9 °F 47.9 °F 29.37 in East 2 mph 9 mph 100% 0.04 in 0.00 W/m2 RA
07:25 48 °F 48 °F 29.37 in East 3 mph 10 mph 100% 0.01 in 0.00 W/m2 RA
07:30 48 °F 48 °F 29.36 in East 1 mph 7 mph 100% 0.03 in 0.00 W/m2 RA
07:35 48.1 °F 48.1 °F 29.36 in East 1 mph 9 mph 100% 0.01 in 0.00 W/m2 RA
07:40 48.1 °F 48.1 °F 29.36 in Calm   4 mph 100% 0.03 in 0.00 W/m2 RA
07:45 48.1 °F 48.1 °F 29.36 in ESE 1 mph 7 mph 100% 0.02 in 0.00 W/m2 RA
07:50 48.2 °F 48.2 °F 29.36 in Calm   4 mph 100% 0.05 in 0.00 W/m2 RA
07:55 48.2 °F 48.2 °F 29.36 in East 2 mph 6 mph 100% 0.02 in 0.00 W/m2 RA
08:00 48.2 °F 48.2 °F 29.35 in Calm   2 mph 100% 0.03 in 0.00 W/m2 RA
08:05 48.2 °F 46.3 °F 29.35 in Calm   2 mph 93% 0.03 in 0.00 W/m2 RA
08:10 48.2 °F 46.3 °F 29.35 in Calm     93% 0.04 in 0.00 W/m2 RA
08:15 48.2 °F 46.3 °F 29.35 in Calm   2 mph 93% 0.02 in 0.00 W/m2 RA
08:20 48.3 °F 46.3 °F 29.34 in Calm   2 mph 93% 0.04 in 0.00 W/m2 RA
08:25 48.3 °F 46.4 °F 29.34 in Calm   2 mph 93% 0.01 in 0.00 W/m2 RA
08:30 48.3 °F 46.4 °F 29.33 in Calm     93% 0.02 in 0.00 W/m2 RA
08:35 48.3 °F 46.4 °F 29.33 in Calm     93% 0.01 in 0.00 W/m2 RA
08:40 48.3 °F 46.4 °F 29.32 in Calm     93% 0.02 in 0.00 W/m2 RA
08:45 48.4 °F 46.5 °F 29.32 in Calm     93% 0.01 in 0.00 W/m2 RA
08:50 48.3 °F 46.4 °F 29.31 in Calm     93% 0.03 in 0.00 W/m2 RA
08:55 48.3 °F 46.4 °F 29.31 in Calm   2 mph 93% 0.03 in 0.00 W/m2 RA
09:00 48.3 °F 46.4 °F 29.31 in Calm     93% 0.07 in 0.00 W/m2 RA
09:05 48.4 °F 48.4 °F 29.30 in Calm   4 mph 100% 0.04 in 7.00 W/m2 RA
09:10 48.4 °F 48.4 °F 29.30 in Calm   3 mph 100% 0.06 in 0.00 W/m2 RA
09:15 48.5 °F 48.5 °F 29.29 in Calm     100% 0.01 in 0.00 W/m2 RA
09:20 48.5 °F 48.5 °F 29.28 in NE 1 mph 4 mph 100% 0.04 in 7.00 W/m2 RA
09:25 48.6 °F 48.6 °F 29.28 in ENE 1 mph 5 mph 100% 0.01 in 9.00 W/m2 RA
09:30 48.7 °F 48.7 °F 29.27 in ENE 3 mph 8 mph 100% 0.04 in 5.00 W/m2 RA
09:35 48.8 °F 48.8 °F 29.26 in ENE 2 mph 4 mph 100% 0.02 in 0.00 W/m2 RA
09:40 48.9 °F 48.9 °F 29.26 in Calm   4 mph 100% 0.04 in 12.00 W/m2 RA
09:45 49 °F 49 °F 29.25 in ENE 1 mph 5 mph 100% 0.03 in 11.00 W/m2 RA
09:50 49.1 °F 49.1 °F 29.25 in ENE 1 mph 9 mph 100% 0.05 in 9.00 W/m2 RA
09:55 49.2 °F 49.2 °F 29.24 in Calm   4 mph 100% 0.01 in 12.00 W/m2 RA
10:00 49.3 °F 49.3 °F 29.24 in ENE 1 mph 6 mph 100% 0.04 in 16.00 W/m2 RA
10:05 49.4 °F 49.4 °F 29.23 in ENE 2 mph 7 mph 100% 0.05 in 26.00 W/m2 RA
10:10 49.4 °F 49.4 °F 29.22 in East 3 mph 9 mph 100% 0.06 in 16.00 W/m2 RA
10:15 49.5 °F 49.5 °F 29.21 in East 1 mph 8 mph 100% 0.01 in 12.00 W/m2 RA
10:20 49.5 °F 49.5 °F 29.21 in Calm   9 mph 100% 0.01 in 9.00 W/m2 RA
10:25 49.5 °F 49.5 °F 29.21 in Calm     100% 0.01 in 9.00 W/m2 RA
10:30 49.5 °F 49.5 °F 29.21 in Calm     100% 0.03 in 7.00 W/m2 RA
10:35 49.6 °F 49.6 °F 29.21 in Calm   5 mph 100% 0.05 in 18.00 W/m2 RA
10:40 49.6 °F 49.6 °F 29.20 in Calm     100% 0.09 in 12.00 W/m2 RA
10:45 49.6 °F 49.6 °F 29.20 in Calm   3 mph 100% 0.03 in 11.00 W/m2 RA
10:50 49.6 °F 49.6 °F 29.20 in Calm     100% 0.05 in 14.00 W/m2 RA
10:55 49.7 °F 49.7 °F 29.20 in Calm   1 mph 100% 0.02 in 18.00 W/m2 RA
11:00 49.7 °F 49.7 °F 29.19 in Calm     100% 0.05 in 14.00 W/m2 RA
11:05 49.7 °F 49.7 °F 29.20 in Calm     100% 0.05 in 14.00 W/m2 RA
11:10 49.8 °F 49.8 °F 29.20 in Calm     100% 0.08 in 23.00 W/m2 RA
11:15 49.8 °F 49.8 °F 29.20 in Calm     100% 0.02 in 16.00 W/m2 RA
11:20 49.9 °F 49.9 °F 29.19 in Calm     100% 0.05 in 67.00 W/m2 RA
11:25 49.9 °F 49.9 °F 29.18 in Calm     100% 0.01 in 58.00 W/m2 RA
11:30 50 °F 50 °F 29.17 in Calm     100% 0.02 in 67.00 W/m2 RA
11:35 50.2 °F 50.2 °F 29.16 in Calm     100% 0 in 54.00 W/m2 RA
11:40 50.3 °F 50.3 °F 29.16 in Calm     100% 0.01 in 69.00 W/m2 RA
11:45 50.3 °F 50.3 °F 29.16 in Calm     100% 0 in 70.00 W/m2 RA
11:50 50.4 °F 50.4 °F 29.17 in Calm     100% 0 in 60.00 W/m2 BKN
11:55 50.5 °F 50.5 °F 29.18 in Calm     100% 0 in 58.00 W/m2 BKN
12:00 50.5 °F 50.5 °F 29.18 in Calm     100% 0 in 67.00 W/m2 BKN
12:05 50.6 °F 50.6 °F 29.19 in Calm     100% 0.01 in 65.00 W/m2 RA
12:10 50.7 °F 50.7 °F 29.18 in Calm   4 mph 100% 0.01 in 44.00 W/m2 RA
12:15 50.7 °F 50.7 °F 29.16 in Calm   3 mph 100% 0.01 in 40.00 W/m2 RA
12:20 50.7 °F 50.7 °F 29.16 in Calm     100% 0.01 in 44.00 W/m2 RA
12:25 50.7 °F 50.7 °F 29.12 in NE 3 mph 5 mph 100% 0 in 62.00 W/m2 OVC
12:30 50.6 °F 50.6 °F 29.09 in NNE 1 mph 8 mph 100% 0 in 149.00 W/m2 SCT
12:35 50.9 °F 50.9 °F 29.07 in NNE 1 mph 6 mph 100% 0 in 188.00 W/m2 SCT
12:40 51.1 °F 51.1 °F 29.07 in Calm   4 mph 100% 0 in 202.00 W/m2 SCT
12:45 51.6 °F 51.6 °F 29.11 in Calm   10 mph 100% 0 in 253.00 W/m2 SCT
12:50 52 °F 52 °F 29.12 in South 5 mph 12 mph 100% 0 in 193.00 W/m2 SCT
12:55 52.1 °F 52.1 °F 29.12 in Calm   13 mph 100% 0 in 267.00 W/m2 SCT
13:00 52.7 °F 52.7 °F 29.12 in South 5 mph 10 mph 100% 0 in 341.00 W/m2 SCT
13:05 53.6 °F 53.6 °F 29.11 in SSE 1 mph 6 mph 100% 0 in 633.00 W/m2 BKN
13:10 54.2 °F 54.2 °F 29.10 in South 1 mph 8 mph 100% 0 in 575.00 W/m2 BKN
13:15 54.6 °F 54.6 °F 29.10 in Calm   10 mph 100% 0 in 559.00 W/m2 BKN
13:20 54.8 °F 54.8 °F 29.10 in South 2 mph 9 mph 100% 0 in 548.00 W/m2 BKN
13:25 55.1 °F 55.1 °F 29.10 in South 2 mph 9 mph 100% 0 in 543.00 W/m2 BKN
13:30 55.6 °F 55.6 °F 29.10 in South 1 mph 6 mph 100% 0 in 543.00 W/m2 BKN
13:35 55.9 °F 55.9 °F 29.10 in South 2 mph 9 mph 100% 0 in 563.00 W/m2 BKN
13:40 55.5 °F 55.5 °F 29.10 in South 3 mph 12 mph 100% 0 in 225.00 W/m2 BKN
13:45 55.8 °F 55.8 °F 29.11 in South 2 mph 10 mph 100% 0 in 649.00 W/m2 BKN
13:50 55.8 °F 55.8 °F 29.11 in South 3 mph 13 mph 100% 0 in 216.00 W/m2 BKN
13:55 55.4 °F 55.4 °F 29.11 in Calm   12 mph 100% 0 in 178.00 W/m2 BKN
14:00 55 °F 55 °F 29.11 in SSE 1 mph 14 mph 100% 0 in 165.00 W/m2 BKN
14:05 54.8 °F 54.8 °F 29.11 in South 3 mph 12 mph 100% 0 in 181.00 W/m2 BKN
14:10 54.6 °F 54.6 °F 29.11 in South 1 mph 10 mph 100% 0 in 134.00 W/m2 BKN
14:15 54.7 °F 54.7 °F 29.11 in South 1 mph 6 mph 100% 0 in 649.00 W/m2 SCT
14:20 56.1 °F 56.1 °F 29.11 in South 1 mph 12 mph 100% 0 in 615.00 W/m2 BKN
14:25 56.8 °F 56.8 °F 29.10 in South 2 mph 12 mph 100% 0 in 253.00 W/m2 BKN
14:30 56.8 °F 56.8 °F 29.10 in South 5 mph 14 mph 100% 0 in 492.00 W/m2 BKN
14:35 56.6 °F 56.6 °F 29.09 in South 3 mph 12 mph 100% 0 in 476.00 W/m2 BKN
14:40 57.4 °F 57.4 °F 29.09 in South 1 mph 8 mph 100% 0 in 478.00 W/m2 BKN
14:45 56.9 °F 56.9 °F 29.09 in South 3 mph 10 mph 100% 0 in 193.00 W/m2 BKN
14:50 56.9 °F 56.9 °F 29.09 in South 1 mph 9 mph 100% 0 in 142.00 W/m2 BKN
14:55 56.5 °F 56.5 °F 29.09 in SSE 2 mph 7 mph 100% 0 in 171.00 W/m2 BKN
15:00 56.5 °F 56.5 °F 29.09 in Calm   6 mph 100% 0 in 193.00 W/m2 BKN
15:05 56.6 °F 49.1 °F 29.09 in SSW 3 mph 12 mph 76% 0 in 181.00 W/m2 SCT
15:10 56.7 °F 49.2 °F 29.09 in SSW 1 mph 8 mph 76% 0 in 220.00 W/m2 SCT
15:15 57 °F 49.5 °F 29.09 in South 6 mph 15 mph 76% 0 in 538.00 W/m2 SCT
15:20 57.6 °F 50.1 °F 29.09 in South 5 mph 14 mph 76% 0 in 309.00 W/m2 SCT
15:25 57.8 °F 50.3 °F 29.09 in South 6 mph 13 mph 76% 0 in 352.00 W/m2 SCT
15:30 57.4 °F 49.9 °F 29.09 in South 3 mph 14 mph 76% 0 in 295.00 W/m2 SCT
15:35 57 °F 49.5 °F 29.09 in SSE 1 mph 12 mph 76% 0 in 125.00 W/m2 SCT
15:40 56.7 °F 49.2 °F 29.09 in South 6 mph 12 mph 76% 0 in 132.00 W/m2 SCT
15:45 56.8 °F 49.3 °F 29.09 in SSW 3 mph 14 mph 76% 0 in 197.00 W/m2 SCT
15:50 57 °F 49.5 °F 29.09 in South 8 mph 17 mph 76% 0 in 262.00 W/m2 SCT
15:55 56.9 °F 49.4 °F 29.10 in SSW 6 mph 16 mph 76% 0 in 216.00 W/m2 SCT
16:00 56.7 °F 49.2 °F 29.10 in SSW 5 mph 17 mph 76% 0 in 197.00 W/m2 SCT
16:05 56 °F 46.8 °F 29.10 in SSW 3 mph 16 mph 71% 0 in 105.00 W/m2 SCT
16:10 55.5 °F 46.3 °F 29.10 in SSW 6 mph 20 mph 71% 0 in 137.00 W/m2 SCT
16:15 55.3 °F 46.1 °F 29.11 in South 6 mph 14 mph 71% 0 in 98.00 W/m2 SCT
16:20 55.2 °F 46 °F 29.11 in South 6 mph 14 mph 71% 0 in 88.00 W/m2 SCT
16:25 55.1 °F 45.9 °F 29.11 in SSW 5 mph 9 mph 71% 0 in 42.00 W/m2 SCT
16:30 54.8 °F 45.6 °F 29.11 in SSW 1 mph 13 mph 71% 0 in 95.00 W/m2 SCT
16:35 54.8 °F 45.6 °F 29.11 in SSW 3 mph 10 mph 71% 0 in 40.00 W/m2 SCT
16:40 54.6 °F 45.4 °F 29.11 in Calm   7 mph 71% 0 in 28.00 W/m2 SCT
16:45 54.3 °F 45.1 °F 29.11 in Calm   5 mph 71% 0 in 42.00 W/m2 SCT
16:50 54 °F 44.8 °F 29.12 in SSW 1 mph 16 mph 71% 0 in 58.00 W/m2 SCT
16:55 53.8 °F 44.6 °F 29.12 in South 1 mph 14 mph 71% 0 in 62.00 W/m2 SCT
17:00 53.7 °F 44.6 °F 29.12 in SSW 5 mph 12 mph 71% 0 in 90.00 W/m2 SCT
17:05 53.7 °F 46.3 °F 29.12 in SSW 6 mph 13 mph 76% 0 in 65.00 W/m2 BKN
17:10 53.5 °F 46.2 °F 29.12 in SSW 5 mph 23 mph 76% 0 in 77.00 W/m2 BKN
17:15 53.4 °F 46 °F 29.13 in South 3 mph 12 mph 76% 0 in 47.00 W/m2 BKN
17:20 53.1 °F 45.8 °F 29.13 in South 5 mph 21 mph 76% 0 in 18.00 W/m2 BKN
17:25 52.7 °F 45.4 °F 29.13 in South 8 mph 20 mph 76% 0 in 11.00 W/m2 BKN
17:30 52.4 °F 45 °F 29.14 in SSW 3 mph 20 mph 76% 0 in 9.00 W/m2 BKN
17:35 51.5 °F 44.2 °F 29.14 in SSW 3 mph 16 mph 76% 0 in 14.00 W/m2 BKN
17:40 50.5 °F 43.3 °F 29.13 in SSW 2 mph 12 mph 76% 0 in 14.00 W/m2 BKN
17:45 50 °F 42.8 °F 29.14 in SSW 6 mph 13 mph 76% 0.01 in 12.00 W/m2 RA
Zumbrota Weather